sensor_id;sensor_type;location;lat;lon;timestamp;P1;durP1;ratioP1;P2;durP2;ratioP2
44328;SDS011;30039;51.462;6.892;2022-10-18T00:01:08;4.70;;;1.88;;
44328;SDS011;30039;51.462;6.892;2022-10-18T00:03:53;4.60;;;1.52;;
44328;SDS011;30039;51.462;6.892;2022-10-18T00:06:41;2.90;;;1.73;;
44328;SDS011;30039;51.462;6.892;2022-10-18T00:09:27;5.97;;;1.65;;
44328;SDS011;30039;51.462;6.892;2022-10-18T00:12:13;3.83;;;1.85;;
44328;SDS011;30039;51.462;6.892;2022-10-18T00:14:58;2.67;;;1.65;;
44328;SDS011;30039;51.462;6.892;2022-10-18T00:17:44;1.95;;;1.45;;
44328;SDS011;30039;51.462;6.892;2022-10-18T00:20:30;4.25;;;1.67;;
44328;SDS011;30039;51.462;6.892;2022-10-18T00:23:15;2.63;;;1.30;;
44328;SDS011;30039;51.462;6.892;2022-10-18T00:26:08;3.25;;;1.65;;
44328;SDS011;30039;51.462;6.892;2022-10-18T00:28:55;4.68;;;1.70;;
44328;SDS011;30039;51.462;6.892;2022-10-18T00:31:42;2.65;;;1.45;;
44328;SDS011;30039;51.462;6.892;2022-10-18T00:34:29;3.72;;;1.60;;
44328;SDS011;30039;51.462;6.892;2022-10-18T00:37:14;3.72;;;1.63;;
44328;SDS011;30039;51.462;6.892;2022-10-18T00:40:00;3.28;;;1.52;;
44328;SDS011;30039;51.462;6.892;2022-10-18T00:42:46;5.82;;;1.80;;
44328;SDS011;30039;51.462;6.892;2022-10-18T00:45:31;3.67;;;1.60;;
44328;SDS011;30039;51.462;6.892;2022-10-18T00:48:17;3.72;;;1.65;;
44328;SDS011;30039;51.462;6.892;2022-10-18T00:51:05;4.53;;;1.60;;
44328;SDS011;30039;51.462;6.892;2022-10-18T00:53:51;2.75;;;1.45;;
44328;SDS011;30039;51.462;6.892;2022-10-18T00:56:37;5.45;;;1.58;;
44328;SDS011;30039;51.462;6.892;2022-10-18T00:59:24;2.50;;;1.58;;
44328;SDS011;30039;51.462;6.892;2022-10-18T01:02:10;4.85;;;1.52;;
44328;SDS011;30039;51.462;6.892;2022-10-18T01:04:56;2.22;;;1.83;;
44328;SDS011;30039;51.462;6.892;2022-10-18T01:13:27;3.85;;;1.70;;
44328;SDS011;30039;51.462;6.892;2022-10-18T01:16:22;4.45;;;1.73;;
44328;SDS011;30039;51.462;6.892;2022-10-18T01:22:14;4.15;;;1.70;;
44328;SDS011;30039;51.462;6.892;2022-10-18T01:25:35;6.60;;;1.63;;
44328;SDS011;30039;51.462;6.892;2022-10-18T01:31:19;3.50;;;1.80;;
44328;SDS011;30039;51.462;6.892;2022-10-18T01:34:07;4.30;;;2.00;;
44328;SDS011;30039;51.462;6.892;2022-10-18T01:36:54;3.75;;;1.90;;
44328;SDS011;30039;51.462;6.892;2022-10-18T01:39:42;4.38;;;1.75;;
44328;SDS011;30039;51.462;6.892;2022-10-18T01:42:29;3.00;;;1.67;;
44328;SDS011;30039;51.462;6.892;2022-10-18T01:45:15;2.97;;;2.17;;
44328;SDS011;30039;51.462;6.892;2022-10-18T01:48:01;1.92;;;1.42;;
44328;SDS011;30039;51.462;6.892;2022-10-18T01:50:47;2.05;;;1.42;;
44328;SDS011;30039;51.462;6.892;2022-10-18T01:53:33;2.20;;;1.50;;
44328;SDS011;30039;51.462;6.892;2022-10-18T02:02:59;2.47;;;1.73;;
44328;SDS011;30039;51.462;6.892;2022-10-18T02:05:53;2.80;;;1.75;;
44328;SDS011;30039;51.462;6.892;2022-10-18T02:08:45;3.90;;;1.85;;
44328;SDS011;30039;51.462;6.892;2022-10-18T02:11:32;3.65;;;1.73;;
44328;SDS011;30039;51.462;6.892;2022-10-18T02:14:19;2.67;;;1.90;;
44328;SDS011;30039;51.462;6.892;2022-10-18T02:17:08;7.30;;;1.80;;
44328;SDS011;30039;51.462;6.892;2022-10-18T02:19:57;3.38;;;1.70;;
44328;SDS011;30039;51.462;6.892;2022-10-18T02:22:44;2.88;;;1.70;;
44328;SDS011;30039;51.462;6.892;2022-10-18T02:25:31;5.07;;;2.13;;
44328;SDS011;30039;51.462;6.892;2022-10-18T02:28:18;5.32;;;1.70;;
44328;SDS011;30039;51.462;6.892;2022-10-18T02:34:41;3.50;;;1.98;;
44328;SDS011;30039;51.462;6.892;2022-10-18T02:37:08;3.20;;;1.88;;
44328;SDS011;30039;51.462;6.892;2022-10-18T02:39:55;2.58;;;1.73;;
44328;SDS011;30039;51.462;6.892;2022-10-18T02:42:46;3.03;;;1.80;;
44328;SDS011;30039;51.462;6.892;2022-10-18T02:45:32;4.30;;;2.08;;
44328;SDS011;30039;51.462;6.892;2022-10-18T02:48:18;4.10;;;1.98;;
44328;SDS011;30039;51.462;6.892;2022-10-18T02:51:03;5.60;;;2.00;;
44328;SDS011;30039;51.462;6.892;2022-10-18T02:53:49;4.28;;;2.05;;
44328;SDS011;30039;51.462;6.892;2022-10-18T02:56:35;5.25;;;2.15;;
44328;SDS011;30039;51.462;6.892;2022-10-18T02:59:20;4.97;;;2.20;;
44328;SDS011;30039;51.462;6.892;2022-10-18T03:02:06;6.22;;;2.75;;
44328;SDS011;30039;51.462;6.892;2022-10-18T03:04:52;4.20;;;1.85;;
44328;SDS011;30039;51.462;6.892;2022-10-18T03:07:37;4.28;;;2.20;;
44328;SDS011;30039;51.462;6.892;2022-10-18T03:10:23;2.97;;;1.92;;
44328;SDS011;30039;51.462;6.892;2022-10-18T03:13:09;5.10;;;1.90;;
44328;SDS011;30039;51.462;6.892;2022-10-18T03:15:55;4.93;;;2.55;;
44328;SDS011;30039;51.462;6.892;2022-10-18T03:18:40;5.57;;;2.70;;
44328;SDS011;30039;51.462;6.892;2022-10-18T03:21:26;4.28;;;2.58;;
44328;SDS011;30039;51.462;6.892;2022-10-18T03:24:12;4.38;;;2.42;;
44328;SDS011;30039;51.462;6.892;2022-10-18T03:26:57;4.47;;;2.72;;
44328;SDS011;30039;51.462;6.892;2022-10-18T03:29:43;3.60;;;2.30;;
44328;SDS011;30039;51.462;6.892;2022-10-18T03:32:29;4.18;;;2.55;;
44328;SDS011;30039;51.462;6.892;2022-10-18T03:35:15;4.43;;;2.88;;
44328;SDS011;30039;51.462;6.892;2022-10-18T03:38:00;3.50;;;2.50;;
44328;SDS011;30039;51.462;6.892;2022-10-18T03:40:46;4.72;;;2.35;;
44328;SDS011;30039;51.462;6.892;2022-10-18T03:43:32;4.95;;;2.85;;
44328;SDS011;30039;51.462;6.892;2022-10-18T03:46:17;5.32;;;2.65;;
44328;SDS011;30039;51.462;6.892;2022-10-18T03:49:05;5.97;;;3.13;;
44328;SDS011;30039;51.462;6.892;2022-10-18T03:51:51;8.25;;;3.33;;
44328;SDS011;30039;51.462;6.892;2022-10-18T03:54:36;5.28;;;2.78;;
44328;SDS011;30039;51.462;6.892;2022-10-18T03:57:22;6.03;;;3.05;;
44328;SDS011;30039;51.462;6.892;2022-10-18T04:00:08;5.40;;;2.85;;
44328;SDS011;30039;51.462;6.892;2022-10-18T04:02:54;7.25;;;3.95;;
44328;SDS011;30039;51.462;6.892;2022-10-18T04:05:39;10.50;;;4.18;;
44328;SDS011;30039;51.462;6.892;2022-10-18T04:08:25;5.22;;;3.25;;
44328;SDS011;30039;51.462;6.892;2022-10-18T04:11:11;6.45;;;3.47;;
44328;SDS011;30039;51.462;6.892;2022-10-18T04:14:06;5.28;;;3.08;;
44328;SDS011;30039;51.462;6.892;2022-10-18T04:16:53;8.23;;;3.58;;
44328;SDS011;30039;51.462;6.892;2022-10-18T04:19:38;10.88;;;4.85;;
44328;SDS011;30039;51.462;6.892;2022-10-18T04:22:25;8.73;;;3.90;;
44328;SDS011;30039;51.462;6.892;2022-10-18T04:25:11;9.20;;;4.00;;
44328;SDS011;30039;51.462;6.892;2022-10-18T04:27:56;8.70;;;4.47;;
44328;SDS011;30039;51.462;6.892;2022-10-18T04:30:42;9.23;;;4.40;;
44328;SDS011;30039;51.462;6.892;2022-10-18T04:33:28;9.98;;;4.70;;
44328;SDS011;30039;51.462;6.892;2022-10-18T04:36:13;10.32;;;5.20;;
44328;SDS011;30039;51.462;6.892;2022-10-18T04:38:59;9.70;;;5.15;;
44328;SDS011;30039;51.462;6.892;2022-10-18T04:41:44;8.93;;;5.05;;
44328;SDS011;30039;51.462;6.892;2022-10-18T04:44:30;13.27;;;6.60;;
44328;SDS011;30039;51.462;6.892;2022-10-18T04:47:16;10.30;;;5.03;;
44328;SDS011;30039;51.462;6.892;2022-10-18T04:50:01;8.07;;;4.90;;
44328;SDS011;30039;51.462;6.892;2022-10-18T04:52:47;9.77;;;5.55;;
44328;SDS011;30039;51.462;6.892;2022-10-18T04:55:33;9.75;;;4.88;;
44328;SDS011;30039;51.462;6.892;2022-10-18T04:58:19;9.50;;;5.75;;
44328;SDS011;30039;51.462;6.892;2022-10-18T05:01:05;11.02;;;5.90;;
44328;SDS011;30039;51.462;6.892;2022-10-18T05:03:51;7.38;;;4.93;;
44328;SDS011;30039;51.462;6.892;2022-10-18T05:06:38;10.55;;;5.22;;
44328;SDS011;30039;51.462;6.892;2022-10-18T05:09:24;9.27;;;5.15;;
44328;SDS011;30039;51.462;6.892;2022-10-18T05:12:09;10.07;;;5.13;;
44328;SDS011;30039;51.462;6.892;2022-10-18T05:14:56;12.73;;;5.05;;
44328;SDS011;30039;51.462;6.892;2022-10-18T05:17:42;8.82;;;5.30;;
44328;SDS011;30039;51.462;6.892;2022-10-18T05:20:28;8.75;;;4.82;;
44328;SDS011;30039;51.462;6.892;2022-10-18T05:23:13;10.48;;;5.05;;
44328;SDS011;30039;51.462;6.892;2022-10-18T05:26:02;9.93;;;5.60;;
44328;SDS011;30039;51.462;6.892;2022-10-18T05:28:48;12.73;;;5.30;;
44328;SDS011;30039;51.462;6.892;2022-10-18T05:31:34;9.57;;;5.32;;
44328;SDS011;30039;51.462;6.892;2022-10-18T05:34:20;7.93;;;5.10;;
44328;SDS011;30039;51.462;6.892;2022-10-18T05:37:06;10.50;;;5.75;;
44328;SDS011;30039;51.462;6.892;2022-10-18T05:39:52;10.88;;;5.78;;
44328;SDS011;30039;51.462;6.892;2022-10-18T05:42:38;8.95;;;5.28;;
44328;SDS011;30039;51.462;6.892;2022-10-18T05:45:23;11.05;;;5.75;;
44328;SDS011;30039;51.462;6.892;2022-10-18T05:48:09;8.05;;;5.53;;
44328;SDS011;30039;51.462;6.892;2022-10-18T05:50:58;9.38;;;5.50;;
44328;SDS011;30039;51.462;6.892;2022-10-18T05:53:44;10.35;;;6.00;;
44328;SDS011;30039;51.462;6.892;2022-10-18T05:56:30;11.02;;;5.57;;
44328;SDS011;30039;51.462;6.892;2022-10-18T05:59:17;13.18;;;5.72;;
44328;SDS011;30039;51.462;6.892;2022-10-18T06:02:03;9.93;;;5.43;;
44328;SDS011;30039;51.462;6.892;2022-10-18T06:04:48;12.80;;;5.25;;
44328;SDS011;30039;51.462;6.892;2022-10-18T06:07:34;9.18;;;5.72;;
44328;SDS011;30039;51.462;6.892;2022-10-18T06:10:19;13.32;;;6.45;;
44328;SDS011;30039;51.462;6.892;2022-10-18T06:13:05;11.05;;;6.13;;
44328;SDS011;30039;51.462;6.892;2022-10-18T06:15:54;18.73;;;7.15;;
44328;SDS011;30039;51.462;6.892;2022-10-18T06:18:40;19.83;;;7.68;;
44328;SDS011;30039;51.462;6.892;2022-10-18T06:21:27;12.13;;;6.28;;
44328;SDS011;30039;51.462;6.892;2022-10-18T06:24:13;163.00;;;31.13;;
44328;SDS011;30039;51.462;6.892;2022-10-18T06:26:58;25.17;;;8.65;;
44328;SDS011;30039;51.462;6.892;2022-10-18T06:29:44;31.80;;;10.20;;
44328;SDS011;30039;51.462;6.892;2022-10-18T06:32:30;21.23;;;8.18;;
44328;SDS011;30039;51.462;6.892;2022-10-18T06:35:15;16.83;;;7.40;;
44328;SDS011;30039;51.462;6.892;2022-10-18T06:38:01;16.05;;;8.18;;
44328;SDS011;30039;51.462;6.892;2022-10-18T06:40:47;15.43;;;6.88;;
44328;SDS011;30039;51.462;6.892;2022-10-18T06:43:33;11.40;;;6.65;;
44328;SDS011;30039;51.462;6.892;2022-10-18T06:46:19;13.77;;;6.88;;
44328;SDS011;30039;51.462;6.892;2022-10-18T06:49:05;13.20;;;7.20;;
44328;SDS011;30039;51.462;6.892;2022-10-18T06:51:52;14.57;;;7.07;;
44328;SDS011;30039;51.462;6.892;2022-10-18T06:54:38;14.23;;;8.13;;
44328;SDS011;30039;51.462;6.892;2022-10-18T06:57:24;17.67;;;7.97;;
44328;SDS011;30039;51.462;6.892;2022-10-18T07:00:10;15.18;;;8.40;;
44328;SDS011;30039;51.462;6.892;2022-10-18T07:02:57;18.02;;;8.23;;
44328;SDS011;30039;51.462;6.892;2022-10-18T07:05:42;14.55;;;7.75;;
44328;SDS011;30039;51.462;6.892;2022-10-18T07:08:28;15.43;;;8.00;;
44328;SDS011;30039;51.462;6.892;2022-10-18T07:11:18;17.27;;;8.25;;
44328;SDS011;30039;51.462;6.892;2022-10-18T07:14:04;15.20;;;7.95;;
44328;SDS011;30039;51.462;6.892;2022-10-18T07:16:50;15.15;;;8.13;;
44328;SDS011;30039;51.462;6.892;2022-10-18T07:19:35;18.92;;;9.13;;
44328;SDS011;30039;51.462;6.892;2022-10-18T07:22:21;16.92;;;8.35;;
44328;SDS011;30039;51.462;6.892;2022-10-18T07:25:07;19.05;;;9.85;;
44328;SDS011;30039;51.462;6.892;2022-10-18T07:27:53;21.58;;;10.15;;
44328;SDS011;30039;51.462;6.892;2022-10-18T07:30:38;17.40;;;9.38;;
44328;SDS011;30039;51.462;6.892;2022-10-18T07:33:25;26.10;;;11.52;;
44328;SDS011;30039;51.462;6.892;2022-10-18T07:36:14;24.83;;;10.88;;
44328;SDS011;30039;51.462;6.892;2022-10-18T07:39:00;22.83;;;10.30;;
44328;SDS011;30039;51.462;6.892;2022-10-18T07:41:46;30.40;;;12.20;;
44328;SDS011;30039;51.462;6.892;2022-10-18T07:44:32;26.80;;;11.98;;
44328;SDS011;30039;51.462;6.892;2022-10-18T07:47:18;22.02;;;10.88;;
44328;SDS011;30039;51.462;6.892;2022-10-18T07:50:04;22.25;;;11.48;;
44328;SDS011;30039;51.462;6.892;2022-10-18T07:52:50;26.38;;;13.30;;
44328;SDS011;30039;51.462;6.892;2022-10-18T07:55:35;24.00;;;12.70;;
44328;SDS011;30039;51.462;6.892;2022-10-18T07:58:21;23.13;;;13.07;;
44328;SDS011;30039;51.462;6.892;2022-10-18T08:01:07;23.80;;;12.20;;
44328;SDS011;30039;51.462;6.892;2022-10-18T08:03:53;26.15;;;13.98;;
44328;SDS011;30039;51.462;6.892;2022-10-18T08:06:41;28.45;;;13.82;;
44328;SDS011;30039;51.462;6.892;2022-10-18T08:09:27;23.98;;;13.48;;
44328;SDS011;30039;51.462;6.892;2022-10-18T08:12:13;27.65;;;14.45;;
44328;SDS011;30039;51.462;6.892;2022-10-18T08:15:00;28.05;;;14.18;;
44328;SDS011;30039;51.462;6.892;2022-10-18T08:17:45;28.80;;;14.50;;
44328;SDS011;30039;51.462;6.892;2022-10-18T08:20:31;26.23;;;14.07;;
44328;SDS011;30039;51.462;6.892;2022-10-18T08:23:17;26.98;;;13.13;;
44328;SDS011;30039;51.462;6.892;2022-10-18T08:26:04;25.13;;;13.68;;
44328;SDS011;30039;51.462;6.892;2022-10-18T08:28:50;27.08;;;14.75;;
44328;SDS011;30039;51.462;6.892;2022-10-18T08:31:36;30.35;;;15.88;;
44328;SDS011;30039;51.462;6.892;2022-10-18T08:34:22;25.70;;;13.25;;
44328;SDS011;30039;51.462;6.892;2022-10-18T08:37:08;23.27;;;13.52;;
44328;SDS011;30039;51.462;6.892;2022-10-18T08:39:54;27.15;;;14.32;;
44328;SDS011;30039;51.462;6.892;2022-10-18T08:45:29;24.33;;;15.35;;
44328;SDS011;30039;51.462;6.892;2022-10-18T08:48:19;25.02;;;14.23;;
44328;SDS011;30039;51.462;6.892;2022-10-18T08:51:28;26.80;;;15.35;;
44328;SDS011;30039;51.462;6.892;2022-10-18T08:54:24;31.67;;;15.90;;
44328;SDS011;30039;51.462;6.892;2022-10-18T08:57:14;29.80;;;16.17;;
44328;SDS011;30039;51.462;6.892;2022-10-18T09:00:21;29.63;;;15.63;;
44328;SDS011;30039;51.462;6.892;2022-10-18T09:06:18;31.42;;;16.13;;
44328;SDS011;30039;51.462;6.892;2022-10-18T09:18:12;32.53;;;15.88;;
44328;SDS011;30039;51.462;6.892;2022-10-18T09:24:04;31.38;;;15.43;;
44328;SDS011;30039;51.462;6.892;2022-10-18T09:26:56;28.98;;;15.40;;
44328;SDS011;30039;51.462;6.892;2022-10-18T09:38:20;32.08;;;15.10;;
44328;SDS011;30039;51.462;6.892;2022-10-18T09:41:09;30.77;;;14.70;;
44328;SDS011;30039;51.462;6.892;2022-10-18T09:46:48;28.25;;;14.05;;
44328;SDS011;30039;51.462;6.892;2022-10-18T09:49:44;30.55;;;15.02;;
44328;SDS011;30039;51.462;6.892;2022-10-18T09:52:36;27.52;;;14.13;;
44328;SDS011;30039;51.462;6.892;2022-10-18T09:55:27;26.70;;;13.15;;
44328;SDS011;30039;51.462;6.892;2022-10-18T09:58:15;27.52;;;14.48;;
44328;SDS011;30039;51.462;6.892;2022-10-18T10:01:02;32.10;;;14.15;;
44328;SDS011;30039;51.462;6.892;2022-10-18T10:03:47;26.63;;;13.55;;
44328;SDS011;30039;51.462;6.892;2022-10-18T10:06:33;34.47;;;14.43;;
44328;SDS011;30039;51.462;6.892;2022-10-18T10:09:24;27.17;;;12.88;;
44328;SDS011;30039;51.462;6.892;2022-10-18T10:13:01;27.92;;;13.13;;
44328;SDS011;30039;51.462;6.892;2022-10-18T10:15:20;31.17;;;15.88;;
44328;SDS011;30039;51.462;6.892;2022-10-18T10:18:21;20.58;;;11.85;;
44328;SDS011;30039;51.462;6.892;2022-10-18T10:21:13;21.27;;;11.77;;
44328;SDS011;30039;51.462;6.892;2022-10-18T10:24:00;24.23;;;11.93;;
44328;SDS011;30039;51.462;6.892;2022-10-18T10:26:47;22.02;;;11.57;;
44328;SDS011;30039;51.462;6.892;2022-10-18T10:29:45;25.08;;;12.65;;
44328;SDS011;30039;51.462;6.892;2022-10-18T10:32:43;22.48;;;10.80;;
44328;SDS011;30039;51.462;6.892;2022-10-18T10:35:33;17.58;;;10.90;;
44328;SDS011;30039;51.462;6.892;2022-10-18T10:38:25;21.85;;;11.60;;
44328;SDS011;30039;51.462;6.892;2022-10-18T10:41:20;21.58;;;11.73;;
44328;SDS011;30039;51.462;6.892;2022-10-18T10:44:15;22.25;;;11.15;;
44328;SDS011;30039;51.462;6.892;2022-10-18T10:47:00;21.07;;;11.17;;
44328;SDS011;30039;51.462;6.892;2022-10-18T10:49:47;20.42;;;10.63;;
44328;SDS011;30039;51.462;6.892;2022-10-18T10:52:33;21.92;;;10.40;;
44328;SDS011;30039;51.462;6.892;2022-10-18T10:55:21;20.90;;;11.32;;
44328;SDS011;30039;51.462;6.892;2022-10-18T10:58:13;23.65;;;11.68;;
44328;SDS011;30039;51.462;6.892;2022-10-18T11:01:02;23.17;;;12.52;;
44328;SDS011;30039;51.462;6.892;2022-10-18T11:04:02;21.48;;;10.88;;
44328;SDS011;30039;51.462;6.892;2022-10-18T11:07:17;17.48;;;8.65;;
44328;SDS011;30039;51.462;6.892;2022-10-18T11:15:59;23.92;;;11.38;;
44328;SDS011;30039;51.462;6.892;2022-10-18T11:18:48;19.70;;;10.30;;
44328;SDS011;30039;51.462;6.892;2022-10-18T11:21:36;24.35;;;9.75;;
44328;SDS011;30039;51.462;6.892;2022-10-18T11:24:22;15.95;;;8.48;;
44328;SDS011;30039;51.462;6.892;2022-10-18T11:27:14;13.90;;;8.07;;
44328;SDS011;30039;51.462;6.892;2022-10-18T11:41:38;19.42;;;7.97;;
44328;SDS011;30039;51.462;6.892;2022-10-18T11:44:36;20.33;;;10.40;;
44328;SDS011;30039;51.462;6.892;2022-10-18T11:47:33;34.00;;;16.08;;
44328;SDS011;30039;51.462;6.892;2022-10-18T11:53:15;21.85;;;12.18;;
44328;SDS011;30039;51.462;6.892;2022-10-18T11:56:11;22.75;;;12.35;;
44328;SDS011;30039;51.462;6.892;2022-10-18T11:59:08;21.60;;;12.68;;
44328;SDS011;30039;51.462;6.892;2022-10-18T12:04:53;20.80;;;11.35;;
44328;SDS011;30039;51.462;6.892;2022-10-18T12:07:42;22.90;;;11.52;;
44328;SDS011;30039;51.462;6.892;2022-10-18T12:10:30;22.70;;;11.38;;
44328;SDS011;30039;51.462;6.892;2022-10-18T12:13:17;23.85;;;11.68;;
44328;SDS011;30039;51.462;6.892;2022-10-18T12:16:05;23.60;;;12.23;;
44328;SDS011;30039;51.462;6.892;2022-10-18T12:18:58;19.98;;;12.15;;
44328;SDS011;30039;51.462;6.892;2022-10-18T12:21:44;26.98;;;13.82;;
44328;SDS011;30039;51.462;6.892;2022-10-18T12:24:31;16.50;;;10.02;;
44328;SDS011;30039;51.462;6.892;2022-10-18T12:27:17;17.90;;;11.07;;
44328;SDS011;30039;51.462;6.892;2022-10-18T12:30:30;18.83;;;11.38;;
44328;SDS011;30039;51.462;6.892;2022-10-18T12:33:16;20.42;;;13.32;;
44328;SDS011;30039;51.462;6.892;2022-10-18T12:38:59;13.85;;;9.10;;
44328;SDS011;30039;51.462;6.892;2022-10-18T12:41:46;19.60;;;9.82;;
44328;SDS011;30039;51.462;6.892;2022-10-18T12:44:33;18.23;;;7.97;;
44328;SDS011;30039;51.462;6.892;2022-10-18T12:47:22;13.10;;;7.72;;
44328;SDS011;30039;51.462;6.892;2022-10-18T13:04:48;16.73;;;7.40;;
44328;SDS011;30039;51.462;6.892;2022-10-18T13:07:35;23.27;;;10.90;;
44328;SDS011;30039;51.462;6.892;2022-10-18T13:10:32;19.80;;;8.57;;
44328;SDS011;30039;51.462;6.892;2022-10-18T13:13:27;22.10;;;10.43;;
44328;SDS011;30039;51.462;6.892;2022-10-18T13:29:00;7.68;;;4.63;;
44328;SDS011;30039;51.462;6.892;2022-10-18T13:31:55;8.00;;;3.20;;
44328;SDS011;30039;51.462;6.892;2022-10-18T13:34:43;6.88;;;2.97;;
44328;SDS011;30039;51.462;6.892;2022-10-18T13:37:29;9.07;;;3.13;;
44328;SDS011;30039;51.462;6.892;2022-10-18T13:40:21;11.05;;;3.80;;
44328;SDS011;30039;51.462;6.892;2022-10-18T13:46:13;8.32;;;2.53;;
44328;SDS011;30039;51.462;6.892;2022-10-18T13:54:55;8.45;;;2.20;;
44328;SDS011;30039;51.462;6.892;2022-10-18T13:57:48;7.15;;;2.10;;
44328;SDS011;30039;51.462;6.892;2022-10-18T14:15:12;5.93;;;1.77;;
44328;SDS011;30039;51.462;6.892;2022-10-18T14:18:01;6.40;;;1.92;;
44328;SDS011;30039;51.462;6.892;2022-10-18T14:20:49;10.73;;;2.00;;
44328;SDS011;30039;51.462;6.892;2022-10-18T14:23:40;4.22;;;1.75;;
44328;SDS011;30039;51.462;6.892;2022-10-18T14:26:27;6.75;;;1.60;;
44328;SDS011;30039;51.462;6.892;2022-10-18T14:29:15;6.40;;;1.90;;
44328;SDS011;30039;51.462;6.892;2022-10-18T14:32:01;6.82;;;1.80;;
44328;SDS011;30039;51.462;6.892;2022-10-18T14:34:47;8.30;;;2.10;;
44328;SDS011;30039;51.462;6.892;2022-10-18T14:37:34;8.75;;;1.90;;
44328;SDS011;30039;51.462;6.892;2022-10-18T14:40:55;7.40;;;2.05;;
44328;SDS011;30039;51.462;6.892;2022-10-18T14:43:32;6.88;;;1.88;;
44328;SDS011;30039;51.462;6.892;2022-10-18T14:46:22;8.45;;;2.15;;
44328;SDS011;30039;51.462;6.892;2022-10-18T14:49:10;8.02;;;1.85;;
44328;SDS011;30039;51.462;6.892;2022-10-18T14:51:58;6.40;;;1.73;;
44328;SDS011;30039;51.462;6.892;2022-10-18T14:54:45;8.93;;;2.00;;
44328;SDS011;30039;51.462;6.892;2022-10-18T14:57:32;8.77;;;2.00;;
44328;SDS011;30039;51.462;6.892;2022-10-18T15:00:22;7.97;;;1.88;;
44328;SDS011;30039;51.462;6.892;2022-10-18T15:03:11;5.65;;;1.80;;
44328;SDS011;30039;51.462;6.892;2022-10-18T15:05:59;7.38;;;1.65;;
44328;SDS011;30039;51.462;6.892;2022-10-18T15:08:46;6.35;;;1.80;;
44328;SDS011;30039;51.462;6.892;2022-10-18T15:11:33;4.60;;;1.58;;
44328;SDS011;30039;51.462;6.892;2022-10-18T15:14:19;5.47;;;2.20;;
44328;SDS011;30039;51.462;6.892;2022-10-18T15:17:13;5.28;;;1.48;;
44328;SDS011;30039;51.462;6.892;2022-10-18T15:20:00;4.78;;;1.35;;
44328;SDS011;30039;51.462;6.892;2022-10-18T15:22:47;17.40;;;6.05;;
44328;SDS011;30039;51.462;6.892;2022-10-18T15:25:33;2.67;;;1.42;;
44328;SDS011;30039;51.462;6.892;2022-10-18T15:28:30;4.43;;;1.33;;
44328;SDS011;30039;51.462;6.892;2022-10-18T15:37:04;6.63;;;1.92;;
44328;SDS011;30039;51.462;6.892;2022-10-18T15:40:15;4.03;;;1.73;;
44328;SDS011;30039;51.462;6.892;2022-10-18T15:43:03;6.38;;;1.75;;
44328;SDS011;30039;51.462;6.892;2022-10-18T15:45:51;5.28;;;1.42;;
44328;SDS011;30039;51.462;6.892;2022-10-18T15:48:38;3.55;;;1.70;;
44328;SDS011;30039;51.462;6.892;2022-10-18T15:54:18;4.93;;;1.38;;
44328;SDS011;30039;51.462;6.892;2022-10-18T15:57:13;6.95;;;1.50;;
44328;SDS011;30039;51.462;6.892;2022-10-18T16:00:01;6.15;;;1.48;;
44328;SDS011;30039;51.462;6.892;2022-10-18T16:02:48;3.78;;;1.30;;
44328;SDS011;30039;51.462;6.892;2022-10-18T16:05:35;7.10;;;1.48;;
44328;SDS011;30039;51.462;6.892;2022-10-18T16:08:22;4.05;;;1.80;;
44328;SDS011;30039;51.462;6.892;2022-10-18T16:11:16;10.48;;;2.70;;
44328;SDS011;30039;51.462;6.892;2022-10-18T16:14:02;5.23;;;2.40;;
44328;SDS011;30039;51.462;6.892;2022-10-18T16:16:49;9.00;;;2.40;;
44328;SDS011;30039;51.462;6.892;2022-10-18T16:19:35;8.40;;;2.20;;
44328;SDS011;30039;51.462;6.892;2022-10-18T16:22:21;4.32;;;2.53;;
44328;SDS011;30039;51.462;6.892;2022-10-18T16:25:06;21.63;;;3.15;;
44328;SDS011;30039;51.462;6.892;2022-10-18T16:27:52;17.88;;;6.43;;
44328;SDS011;30039;51.462;6.892;2022-10-18T16:30:38;8.23;;;1.60;;
44328;SDS011;30039;51.462;6.892;2022-10-18T16:33:24;5.10;;;1.65;;
44328;SDS011;30039;51.462;6.892;2022-10-18T16:36:14;5.63;;;1.80;;
44328;SDS011;30039;51.462;6.892;2022-10-18T16:39:00;3.33;;;1.10;;
44328;SDS011;30039;51.462;6.892;2022-10-18T16:41:47;7.25;;;1.60;;
44328;SDS011;30039;51.462;6.892;2022-10-18T16:44:33;3.80;;;1.52;;
44328;SDS011;30039;51.462;6.892;2022-10-18T16:47:19;2.88;;;1.35;;
44328;SDS011;30039;51.462;6.892;2022-10-18T16:50:05;7.90;;;1.50;;
44328;SDS011;30039;51.462;6.892;2022-10-18T16:52:52;8.95;;;1.63;;
44328;SDS011;30039;51.462;6.892;2022-10-18T16:55:40;6.57;;;1.95;;
44328;SDS011;30039;51.462;6.892;2022-10-18T16:58:28;5.05;;;1.67;;
44328;SDS011;30039;51.462;6.892;2022-10-18T17:01:19;6.55;;;1.60;;
44328;SDS011;30039;51.462;6.892;2022-10-18T17:04:06;6.47;;;1.85;;
44328;SDS011;30039;51.462;6.892;2022-10-18T17:06:52;3.53;;;1.20;;
44328;SDS011;30039;51.462;6.892;2022-10-18T17:09:38;4.85;;;1.42;;
44328;SDS011;30039;51.462;6.892;2022-10-18T17:12:24;4.82;;;1.45;;
44328;SDS011;30039;51.462;6.892;2022-10-18T17:15:11;9.18;;;2.72;;
44328;SDS011;30039;51.462;6.892;2022-10-18T17:17:57;6.15;;;1.70;;
44328;SDS011;30039;51.462;6.892;2022-10-18T17:20:45;4.32;;;1.45;;
44328;SDS011;30039;51.462;6.892;2022-10-18T17:23:31;4.60;;;1.73;;
44328;SDS011;30039;51.462;6.892;2022-10-18T17:26:19;4.88;;;1.40;;
44328;SDS011;30039;51.462;6.892;2022-10-18T17:29:05;6.95;;;1.60;;
44328;SDS011;30039;51.462;6.892;2022-10-18T17:31:52;6.28;;;1.52;;
44328;SDS011;30039;51.462;6.892;2022-10-18T17:34:38;5.80;;;1.42;;
44328;SDS011;30039;51.462;6.892;2022-10-18T17:37:24;6.95;;;1.70;;
44328;SDS011;30039;51.462;6.892;2022-10-18T17:40:09;10.55;;;1.50;;
44328;SDS011;30039;51.462;6.892;2022-10-18T17:42:55;5.30;;;1.67;;
44328;SDS011;30039;51.462;6.892;2022-10-18T17:45:47;3.72;;;1.50;;
44328;SDS011;30039;51.462;6.892;2022-10-18T17:48:34;6.95;;;1.73;;
44328;SDS011;30039;51.462;6.892;2022-10-18T17:51:19;5.32;;;1.80;;
44328;SDS011;30039;51.462;6.892;2022-10-18T17:54:06;3.78;;;1.77;;
44328;SDS011;30039;51.462;6.892;2022-10-18T17:56:51;5.20;;;1.70;;
44328;SDS011;30039;51.462;6.892;2022-10-18T17:59:37;6.95;;;2.33;;
44328;SDS011;30039;51.462;6.892;2022-10-18T18:02:23;7.75;;;1.75;;
44328;SDS011;30039;51.462;6.892;2022-10-18T18:05:08;7.10;;;1.80;;
44328;SDS011;30039;51.462;6.892;2022-10-18T18:07:54;7.13;;;1.65;;
44328;SDS011;30039;51.462;6.892;2022-10-18T18:10:40;6.32;;;2.03;;
44328;SDS011;30039;51.462;6.892;2022-10-18T18:13:26;4.95;;;1.90;;
44328;SDS011;30039;51.462;6.892;2022-10-18T18:16:19;5.65;;;1.90;;
44328;SDS011;30039;51.462;6.892;2022-10-18T18:19:06;6.15;;;2.10;;
44328;SDS011;30039;51.462;6.892;2022-10-18T18:21:53;10.02;;;2.70;;
44328;SDS011;30039;51.462;6.892;2022-10-18T18:24:40;4.38;;;2.00;;
44328;SDS011;30039;51.462;6.892;2022-10-18T18:27:27;5.50;;;1.80;;
44328;SDS011;30039;51.462;6.892;2022-10-18T18:30:12;6.20;;;1.90;;
44328;SDS011;30039;51.462;6.892;2022-10-18T18:32:59;10.38;;;4.50;;
44328;SDS011;30039;51.462;6.892;2022-10-18T18:36:03;10.45;;;4.05;;
44328;SDS011;30039;51.462;6.892;2022-10-18T18:38:50;8.10;;;2.28;;
44328;SDS011;30039;51.462;6.892;2022-10-18T18:41:37;7.57;;;2.30;;
44328;SDS011;30039;51.462;6.892;2022-10-18T18:44:23;7.10;;;2.30;;
44328;SDS011;30039;51.462;6.892;2022-10-18T18:47:09;5.07;;;2.42;;
44328;SDS011;30039;51.462;6.892;2022-10-18T18:49:55;6.35;;;2.30;;
44328;SDS011;30039;51.462;6.892;2022-10-18T18:52:40;10.15;;;2.95;;
44328;SDS011;30039;51.462;6.892;2022-10-18T18:55:26;11.40;;;2.70;;
44328;SDS011;30039;51.462;6.892;2022-10-18T18:58:12;8.40;;;2.95;;